Time;durP1;ratioP1;P1;durP2;ratioP2;P2;SDS_P1;SDS_P2;PMS_P1;PMS_P2;Temp;Humidity;BMP_temperature;BMP_pressure;BME280_temperature;BME280_humidity;BME280_pressure;Samples;Min_cycle;Max_cycle;Signal;HPM_P1;HPM_P2
2022/10/29 00:00:53;;;;;;;16.92;5.75;;;14.60;99.90;;;;;;4995393;28;93014;-72
2022/10/29 00:03:21;;;;;;;21.27;5.60;;;14.60;99.90;;;;;;4996834;28;92507;-73
2022/10/29 00:06:04;;;;;;;15.32;5.72;;;14.60;99.90;;;;;;4996317;28;92418;-72
2022/10/29 00:08:34;;;;;;;14.30;5.13;;;14.60;99.90;;;;;;4995171;28;95894;-72
2022/10/29 00:11:13;;;;;;;13.07;4.80;;;14.50;99.90;;;;;;4995230;28;94355;-73
2022/10/29 00:13:41;;;;;;;21.55;5.18;;;14.50;99.90;;;;;;5012345;28;92567;-72
2022/10/29 00:16:17;;;;;;;14.73;4.28;;;14.50;99.90;;;;;;4994930;28;92417;-72
2022/10/29 00:18:44;;;;;;;15.43;5.18;;;14.50;99.90;;;;;;4995074;28;95409;-72
2022/10/29 00:21:14;;;;;;;19.95;5.22;;;14.40;99.90;;;;;;5011538;28;96453;-72
2022/10/29 00:23:41;;;;;;;11.30;5.63;;;14.40;99.90;;;;;;4996433;28;93055;-73
2022/10/29 00:26:08;;;;;;;24.13;5.18;;;14.30;99.90;;;;;;4996392;28;92956;-73
2022/10/29 00:28:36;;;;;;;16.35;5.22;;;14.30;99.90;;;;;;4995763;28;107171;-73
2022/10/29 00:31:14;;;;;;;17.23;5.32;;;14.30;99.90;;;;;;4995944;28;93072;-73
2022/10/29 00:33:41;;;;;;;18.02;5.72;;;14.20;99.90;;;;;;4996211;28;92920;-72
2022/10/29 00:36:13;;;;;;;17.83;5.40;;;14.20;99.90;;;;;;4996682;28;91653;-73
2022/10/29 00:38:41;;;;;;;18.70;5.15;;;14.20;99.90;;;;;;4996197;28;92442;-73
2022/10/29 00:41:15;;;;;;;17.45;5.97;;;14.20;99.90;;;;;;5011358;28;93526;-72
2022/10/29 00:43:52;;;;;;;17.83;5.22;;;14.20;99.90;;;;;;4993348;28;94920;-73
2022/10/29 00:46:34;;;;;;;18.10;5.85;;;14.20;99.90;;;;;;4994656;28;92378;-72
2022/10/29 00:49:02;;;;;;;18.15;4.70;;;14.20;99.90;;;;;;4996003;28;93205;-73
2022/10/29 00:51:29;;;;;;;12.18;4.93;;;14.10;99.90;;;;;;5010518;28;95622;-72
2022/10/29 00:54:03;;;;;;;15.52;5.55;;;14.10;99.90;;;;;;4995730;28;92367;-73
2022/10/29 00:56:36;;;;;;;17.83;5.50;;;14.10;99.90;;;;;;5011288;28;92561;-73
2022/10/29 00:59:06;;;;;;;17.97;5.57;;;14.00;99.90;;;;;;4995941;28;93234;-73
2022/10/29 01:01:34;;;;;;;18.83;5.38;;;14.00;99.90;;;;;;5011386;28;95754;-72
2022/10/29 01:04:03;;;;;;;15.52;5.30;;;14.00;99.90;;;;;;5011029;28;93066;-72
2022/10/29 01:06:30;;;;;;;16.95;5.05;;;13.90;99.90;;;;;;5010937;28;92538;-72
2022/10/29 01:08:57;;;;;;;19.30;6.20;;;14.00;99.90;;;;;;4993104;28;95461;-72
2022/10/29 01:11:32;;;;;;;14.38;5.13;;;14.00;99.90;;;;;;4994137;28;96655;-73
2022/10/29 01:14:13;;;;;;;13.48;4.72;;;14.00;99.90;;;;;;5010878;28;92521;-72
2022/10/29 01:17:03;;;;;;;12.05;4.97;;;14.00;99.90;;;;;;4994439;28;92440;-73
2022/10/29 01:20:05;;;;;;;13.85;4.60;;;13.90;99.90;;;;;;5011217;28;93315;-72
2022/10/29 01:22:42;;;;;;;17.40;5.57;;;13.90;99.90;;;;;;5011007;28;92463;-72
2022/10/29 01:25:27;;;;;;;16.02;6.00;;;13.80;99.90;;;;;;5010547;28;92530;-72
2022/10/29 01:28:17;;;;;;;21.77;6.10;;;13.80;99.90;;;;;;5011196;28;91771;-72
2022/10/29 01:30:54;;;;;;;13.38;5.05;;;13.80;99.90;;;;;;4994054;28;95771;-72
2022/10/29 01:33:36;;;;;;;18.25;5.50;;;13.70;99.90;;;;;;4995421;28;92879;-72
2022/10/29 01:36:24;;;;;;;18.63;5.45;;;13.70;99.90;;;;;;4992755;28;94865;-72
2022/10/29 01:39:16;;;;;;;27.63;6.25;;;13.70;99.90;;;;;;4995851;28;92871;-72
2022/10/29 01:42:09;;;;;;;15.88;5.88;;;13.70;99.90;;;;;;4993967;28;95746;-72
2022/10/29 01:44:51;;;;;;;16.42;5.05;;;13.60;99.90;;;;;;4993926;28;95630;-72
2022/10/29 01:47:19;;;;;;;21.65;6.53;;;13.60;99.90;;;;;;5010493;28;92441;-72
2022/10/29 01:49:53;;;;;;;22.42;6.68;;;13.50;99.90;;;;;;4995350;28;92428;-72
2022/10/29 01:52:21;;;;;;;17.80;5.88;;;13.50;99.90;;;;;;4995086;28;93394;-73
2022/10/29 01:54:48;;;;;;;18.38;5.25;;;13.50;99.90;;;;;;4995350;28;93167;-72
2022/10/29 01:57:24;;;;;;;17.10;5.78;;;13.40;99.90;;;;;;5010342;28;92916;-72
2022/10/29 01:59:52;;;;;;;24.10;6.32;;;13.50;99.90;;;;;;5010547;28;92442;-72
2022/10/29 02:02:34;;;;;;;23.80;6.28;;;13.40;99.90;;;;;;5008718;28;98208;-72
2022/10/29 02:05:06;;;;;;;22.45;5.50;;;13.40;99.90;;;;;;4998027;28;95412;-73
2022/10/29 02:07:33;;;;;;;19.02;6.07;;;13.40;99.90;;;;;;4998757;28;92462;-73
2022/10/29 02:10:10;;;;;;;21.40;6.47;;;13.30;99.90;;;;;;4998327;28;92531;-72
2022/10/29 02:12:49;;;;;;;12.20;5.05;;;13.30;99.90;;;;;;4997014;28;96006;-72
2022/10/29 02:15:44;;;;;;;16.88;5.97;;;13.30;99.90;;;;;;4998045;28;93172;-73
2022/10/29 02:18:11;;;;;;;18.23;5.53;;;13.20;99.90;;;;;;4995079;28;92535;-73
2022/10/29 02:20:44;;;;;;;15.55;5.78;;;13.10;99.90;;;;;;5013964;28;91786;-72
2022/10/29 02:23:12;;;;;;;14.93;6.30;;;13.10;99.90;;;;;;4997971;28;93203;-73
2022/10/29 02:25:39;;;;;;;18.08;6.82;;;13.10;99.90;;;;;;4980045;28;95727;-73
2022/10/29 02:28:07;;;;;;;17.73;6.88;;;13.10;99.90;;;;;;4995745;28;94783;-73
2022/10/29 02:30:34;;;;;;;25.55;7.60;;;13.10;99.90;;;;;;4998371;28;92411;-73
2022/10/29 02:33:01;;;;;;;16.95;6.38;;;13.10;99.90;;;;;;4998108;28;92925;-73
2022/10/29 02:35:28;;;;;;;23.33;7.10;;;13.10;99.90;;;;;;4996312;28;95596;-72
2022/10/29 02:37:55;;;;;;;23.88;8.20;;;13.00;99.90;;;;;;4998122;28;92352;-73
2022/10/29 02:40:22;;;;;;;18.05;7.50;;;13.00;99.90;;;;;;5012941;28;92566;-72
2022/10/29 02:42:48;;;;;;;17.52;7.93;;;13.00;99.90;;;;;;4980016;28;96012;-73
2022/10/29 02:45:15;;;;;;;20.80;8.38;;;13.00;99.90;;;;;;4998018;28;93083;-72
2022/10/29 02:47:42;;;;;;;19.63;8.63;;;13.00;99.90;;;;;;4998024;28;92992;-73
2022/10/29 02:50:09;;;;;;;28.98;10.25;;;13.00;99.90;;;;;;4979427;28;104403;-73
2022/10/29 02:52:36;;;;;;;26.05;9.57;;;12.90;99.90;;;;;;4995932;28;95527;-72
2022/10/29 02:55:03;;;;;;;25.10;8.90;;;12.90;99.90;;;;;;5012774;28;95486;-72
2022/10/29 02:57:30;;;;;;;21.05;7.32;;;12.90;99.90;;;;;;4996917;28;93019;-73
2022/10/29 02:59:57;;;;;;;17.60;7.93;;;12.90;99.90;;;;;;4996671;28;92475;-72
2022/10/29 03:02:24;;;;;;;24.20;9.38;;;12.90;99.90;;;;;;4996147;28;93328;-72
2022/10/29 03:04:51;;;;;;;21.55;7.93;;;12.90;99.90;;;;;;4997737;28;93267;-73
2022/10/29 03:07:18;;;;;;;15.95;8.80;;;12.90;99.90;;;;;;5012696;28;92346;-73
2022/10/29 03:09:44;;;;;;;27.40;10.80;;;12.90;99.90;;;;;;4996733;28;91725;-73
2022/10/29 03:12:11;;;;;;;24.17;11.05;;;12.80;99.90;;;;;;4996802;28;93531;-73
2022/10/29 03:14:38;;;;;;;27.42;10.38;;;12.80;99.90;;;;;;5011617;28;95657;-72
2022/10/29 03:17:05;;;;;;;22.60;9.80;;;12.90;99.90;;;;;;4994655;28;94843;-72
2022/10/29 03:19:32;;;;;;;18.80;9.25;;;12.80;99.90;;;;;;4995856;28;92893;-72
2022/10/29 03:21:59;;;;;;;15.80;8.20;;;12.80;99.90;;;;;;5012330;28;93194;-72
2022/10/29 03:24:26;;;;;;;25.33;9.73;;;12.80;99.90;;;;;;4996988;28;93103;-72
2022/10/29 03:26:53;;;;;;;28.67;8.90;;;12.80;99.90;;;;;;4997380;28;92470;-72
2022/10/29 03:29:20;;;;;;;24.55;9.73;;;12.80;99.90;;;;;;4997072;28;92429;-73
2022/10/29 03:31:47;;;;;;;21.70;10.77;;;12.80;99.90;;;;;;4995887;28;93358;-73
2022/10/29 03:34:14;;;;;;;29.15;11.70;;;12.80;99.90;;;;;;4996387;28;92996;-73
2022/10/29 03:36:41;;;;;;;31.85;11.40;;;12.90;99.90;;;;;;4996530;28;92416;-73
2022/10/29 03:39:08;;;;;;;31.60;11.80;;;12.90;99.90;;;;;;5012066;28;93009;-72
2022/10/29 03:41:35;;;;;;;37.72;13.20;;;13.00;99.90;;;;;;4994994;28;95785;-72
2022/10/29 03:44:02;;;;;;;45.63;13.48;;;13.00;99.90;;;;;;4996245;28;95491;-73
2022/10/29 03:46:29;;;;;;;32.85;11.80;;;13.10;99.90;;;;;;4995022;28;92499;-73
2022/10/29 03:48:55;;;;;;;29.25;11.23;;;13.10;99.90;;;;;;4996647;28;93063;-73
2022/10/29 03:51:23;;;;;;;28.67;12.63;;;13.20;99.90;;;;;;4996069;28;93073;-73
2022/10/29 03:53:49;;;;;;;27.98;10.13;;;13.20;99.90;;;;;;5011642;28;93081;-72
2022/10/29 03:56:16;;;;;;;32.95;12.15;;;13.20;99.90;;;;;;4995965;28;94576;-72
2022/10/29 03:58:43;;;;;;;48.40;13.82;;;13.30;99.90;;;;;;5012092;28;91727;-72
2022/10/29 04:01:10;;;;;;;22.48;10.48;;;13.30;99.90;;;;;;4978422;28;93168;-72
2022/10/29 04:03:40;;;;;;;24.80;10.60;;;13.40;99.90;;;;;;4995606;28;92997;-72
2022/10/29 04:06:14;;;;;;;20.33;10.55;;;13.40;99.90;;;;;;4993373;28;94854;-72
2022/10/29 04:08:41;;;;;;;21.75;10.00;;;13.40;99.90;;;;;;5011543;28;92433;-72
2022/10/29 04:11:11;;;;;;;22.30;10.45;;;13.40;99.90;;;;;;5011433;28;93339;-73
2022/10/29 04:13:38;;;;;;;19.98;10.45;;;13.50;99.90;;;;;;5011041;28;93033;-72
2022/10/29 04:16:05;;;;;;;16.40;9.95;;;13.50;99.90;;;;;;4996052;28;92940;-72
2022/10/29 04:18:32;;;;;;;14.85;9.68;;;13.50;99.90;;;;;;5011066;28;101243;-73
2022/10/29 04:21:00;;;;;;;15.88;9.80;;;13.60;99.90;;;;;;4996318;28;92374;-73
2022/10/29 04:23:48;;;;;;;17.75;9.32;;;13.60;99.90;;;;;;4996746;28;92831;-73
2022/10/29 04:26:35;;;;;;;18.48;10.32;;;13.60;99.90;;;;;;5007989;28;92533;-72
2022/10/29 04:29:22;;;;;;;17.08;10.18;;;13.70;99.90;;;;;;4994098;28;92432;-72
2022/10/29 04:31:50;;;;;;;14.35;9.55;;;13.70;99.90;;;;;;4994551;28;95850;-73
2022/10/29 04:34:17;;;;;;;15.88;9.88;;;13.70;99.90;;;;;;4995553;28;100075;-73
2022/10/29 04:36:44;;;;;;;17.90;9.77;;;13.80;99.90;;;;;;4978424;28;92536;-72
2022/10/29 04:39:11;;;;;;;17.77;10.48;;;13.80;99.90;;;;;;4978104;28;92510;-73
2022/10/29 04:41:37;;;;;;;16.38;9.07;;;13.90;99.90;;;;;;4994113;28;93339;-72
2022/10/29 04:44:04;;;;;;;18.77;10.32;;;13.90;99.90;;;;;;4994634;28;94237;-72
2022/10/29 04:46:31;;;;;;;18.00;10.98;;;13.90;99.90;;;;;;4995509;28;92565;-72
2022/10/29 04:48:58;;;;;;;18.80;11.65;;;14.00;99.90;;;;;;5011260;28;91704;-72
2022/10/29 04:51:26;;;;;;;18.10;11.13;;;14.00;99.90;;;;;;4994128;28;93015;-72
2022/10/29 04:53:53;;;;;;;21.98;12.25;;;14.00;99.90;;;;;;4995209;28;92380;-72
2022/10/29 04:56:20;;;;;;;18.25;11.23;;;14.10;99.90;;;;;;4994150;28;94751;-73
2022/10/29 04:58:50;;;;;;;15.93;11.48;;;14.10;99.90;;;;;;4993995;28;92811;-72
2022/10/29 05:01:18;;;;;;;17.08;11.38;;;14.20;99.90;;;;;;5010504;28;95753;-72
2022/10/29 05:03:45;;;;;;;16.23;11.23;;;14.20;99.90;;;;;;4994556;28;106188;-72
2022/10/29 05:06:12;;;;;;;20.13;11.52;;;14.20;99.90;;;;;;4994968;28;92453;-72
2022/10/29 05:08:38;;;;;;;14.35;10.65;;;14.20;99.90;;;;;;4995001;28;92443;-72
2022/10/29 05:11:06;;;;;;;21.70;12.18;;;14.30;99.90;;;;;;4977254;28;95919;-73
2022/10/29 05:13:34;;;;;;;17.08;11.15;;;14.30;99.90;;;;;;4995284;28;91925;-73
2022/10/29 05:16:01;;;;;;;20.33;12.40;;;14.30;99.90;;;;;;4995046;28;92456;-72
2022/10/29 05:18:28;;;;;;;17.65;11.25;;;14.30;99.90;;;;;;4995046;28;92441;-72
2022/10/29 05:20:55;;;;;;;18.08;12.32;;;14.30;99.90;;;;;;5008732;28;98115;-73
2022/10/29 05:23:22;;;;;;;29.83;13.38;;;14.40;99.90;;;;;;4994868;28;95250;-72
2022/10/29 05:25:51;;;;;;;42.75;14.15;;;14.40;99.90;;;;;;4995050;28;92416;-72
2022/10/29 05:28:19;;;;;;;55.67;16.23;;;14.40;99.90;;;;;;4993833;28;92451;-73
2022/10/29 05:30:48;;;;;;;56.55;16.20;;;14.40;99.90;;;;;;5009858;28;93487;-72
2022/10/29 05:33:18;;;;;;;55.53;15.98;;;14.40;99.90;;;;;;4993225;28;93141;-73
2022/10/29 05:35:45;;;;;;;52.85;14.48;;;14.40;99.90;;;;;;4994488;28;92457;-72
2022/10/29 05:38:13;;;;;;;71.07;17.35;;;14.40;99.90;;;;;;5012900;28;91789;-73
2022/10/29 05:40:43;;;;;;;59.95;18.15;;;14.40;99.90;;;;;;4997094;28;94174;-72
2022/10/29 05:43:12;;;;;;;58.88;17.45;;;14.40;99.90;;;;;;5013949;28;93419;-73
2022/10/29 05:45:39;;;;;;;86.65;19.60;;;14.40;99.90;;;;;;4996930;28;94774;-72
2022/10/29 05:48:07;;;;;;;71.20;17.67;;;14.40;99.90;;;;;;4998363;28;92442;-72
2022/10/29 05:50:34;;;;;;;58.30;17.63;;;14.40;99.90;;;;;;4996575;28;95359;-72
2022/10/29 05:53:06;;;;;;;67.60;17.83;;;14.40;99.90;;;;;;4980597;28;92440;-72
2022/10/29 05:55:34;;;;;;;52.60;16.33;;;14.40;99.90;;;;;;4996674;28;92429;-73
2022/10/29 05:58:03;;;;;;;63.40;17.25;;;14.40;99.90;;;;;;4997041;28;92498;-72
2022/10/29 06:00:34;;;;;;;49.88;16.67;;;14.40;99.90;;;;;;4996364;28;96014;-73
2022/10/29 06:03:01;;;;;;;53.80;17.13;;;14.50;99.90;;;;;;4998520;28;92936;-72
2022/10/29 06:05:28;;;;;;;82.90;19.85;;;14.40;99.90;;;;;;4996710;28;99781;-72
2022/10/29 06:07:57;;;;;;;76.80;19.08;;;14.50;99.90;;;;;;5013371;28;92477;-72
2022/10/29 06:10:26;;;;;;;71.45;18.23;;;14.50;99.90;;;;;;4978587;28;98219;-72
2022/10/29 06:12:53;;;;;;;71.50;17.98;;;14.50;99.90;;;;;;5012432;28;95449;-72
2022/10/29 06:15:20;;;;;;;62.95;18.13;;;14.50;99.90;;;;;;4997889;28;92940;-73
2022/10/29 06:17:47;;;;;;;45.80;17.23;;;14.50;99.90;;;;;;4997772;28;92510;-73
2022/10/29 06:20:16;;;;;;;74.65;19.80;;;14.50;99.90;;;;;;4997673;28;92419;-73
2022/10/29 06:22:43;;;;;;;57.22;18.70;;;14.50;99.90;;;;;;4996634;28;93008;-72
2022/10/29 06:25:10;;;;;;;71.05;20.98;;;14.50;99.90;;;;;;4997640;28;92372;-72
2022/10/29 06:27:37;;;;;;;58.33;19.33;;;14.60;99.90;;;;;;4997839;28;91714;-72
2022/10/29 06:30:05;;;;;;;91.07;21.80;;;14.60;99.90;;;;;;4997618;28;93433;-72
2022/10/29 06:32:32;;;;;;;100.90;23.15;;;14.60;99.90;;;;;;4997623;28;93003;-73
2022/10/29 06:34:59;;;;;;;69.85;20.42;;;14.60;99.90;;;;;;4995660;28;99005;-72
2022/10/29 06:37:26;;;;;;;59.65;19.90;;;14.70;99.90;;;;;;4996222;28;92527;-72
2022/10/29 06:39:53;;;;;;;50.40;19.17;;;14.70;99.90;;;;;;5012427;28;96369;-72
2022/10/29 06:42:19;;;;;;;55.80;19.67;;;14.70;99.90;;;;;;4996245;28;92957;-73
2022/10/29 06:44:46;;;;;;;54.45;19.70;;;14.70;99.90;;;;;;4997280;28;92368;-73
2022/10/29 06:47:13;;;;;;;66.20;21.58;;;14.70;99.90;;;;;;4997457;28;92432;-73
2022/10/29 06:49:40;;;;;;;69.57;21.92;;;14.70;99.90;;;;;;5011574;28;95733;-72
2022/10/29 06:52:07;;;;;;;42.65;17.58;;;14.70;99.90;;;;;;4997685;28;92963;-73
2022/10/29 06:54:34;;;;;;;62.05;19.67;;;14.70;99.90;;;;;;4996028;28;92503;-73
2022/10/29 06:57:01;;;;;;;57.38;18.40;;;14.70;99.90;;;;;;4997365;28;92478;-72
2022/10/29 06:59:28;;;;;;;46.30;18.58;;;14.70;99.90;;;;;;4995770;28;95597;-73
2022/10/29 07:01:55;;;;;;;48.78;18.63;;;14.70;99.90;;;;;;4994944;28;109117;-73
2022/10/29 07:04:22;;;;;;;46.83;20.00;;;14.70;99.90;;;;;;5012427;28;92473;-72
2022/10/29 07:06:49;;;;;;;51.60;21.08;;;14.70;99.90;;;;;;4996904;28;92471;-73
2022/10/29 07:09:15;;;;;;;50.10;20.75;;;14.80;99.90;;;;;;5011970;28;93288;-73
2022/10/29 07:11:42;;;;;;;40.03;19.20;;;14.80;99.90;;;;;;4995237;28;95906;-72
2022/10/29 07:14:09;;;;;;;43.28;20.73;;;14.90;99.90;;;;;;5012462;28;92479;-73
2022/10/29 07:16:36;;;;;;;47.78;21.20;;;14.90;99.90;;;;;;4997341;28;91704;-72
2022/10/29 07:19:03;;;;;;;45.90;20.77;;;14.90;99.90;;;;;;4995257;28;94417;-73
2022/10/29 07:21:32;;;;;;;45.17;19.05;;;15.00;99.90;;;;;;4996574;28;93065;-72
2022/10/29 07:23:59;;;;;;;44.55;19.95;;;15.00;99.90;;;;;;4995435;28;94748;-73
2022/10/29 07:26:26;;;;;;;54.90;21.20;;;15.00;99.90;;;;;;4995660;28;92514;-73
2022/10/29 07:28:56;;;;;;;49.50;21.88;;;15.10;99.90;;;;;;4996101;28;100963;-73
2022/10/29 07:31:23;;;;;;;40.92;18.92;;;15.10;99.90;;;;;;4995246;28;94129;-73
2022/10/29 07:33:50;;;;;;;46.65;20.05;;;15.10;99.90;;;;;;4996410;28;92476;-72
2022/10/29 07:36:17;;;;;;;43.47;20.55;;;15.10;99.90;;;;;;4995597;28;92564;-72
2022/10/29 07:38:45;;;;;;;42.88;19.55;;;15.20;99.90;;;;;;5011408;28;95725;-73
2022/10/29 07:41:12;;;;;;;32.58;18.85;;;15.20;99.90;;;;;;4996842;28;93690;-73
2022/10/29 07:43:39;;;;;;;39.95;18.40;;;15.30;99.90;;;;;;5011974;28;92414;-73
2022/10/29 07:46:06;;;;;;;42.00;20.85;;;15.30;99.90;;;;;;4996561;28;92394;-73
2022/10/29 07:48:33;;;;;;;33.95;19.50;;;15.30;99.90;;;;;;4994744;28;95419;-72
2022/10/29 07:51:00;;;;;;;32.72;18.38;;;15.30;99.90;;;;;;4978000;28;98082;-73
2022/10/29 07:53:30;;;;;;;33.58;18.90;;;15.30;99.90;;;;;;4996091;28;98907;-73
2022/10/29 07:55:57;;;;;;;28.88;18.63;;;15.40;99.90;;;;;;4994933;28;92863;-73
2022/10/29 07:58:25;;;;;;;28.02;18.05;;;15.40;99.90;;;;;;5011636;28;93143;-72
2022/10/29 08:00:52;;;;;;;33.17;19.73;;;15.40;99.90;;;;;;4994720;28;93043;-73
2022/10/29 08:03:20;;;;;;;28.27;18.52;;;15.40;99.90;;;;;;4994826;28;92466;-73
2022/10/29 08:05:48;;;;;;;30.83;19.48;;;15.50;99.90;;;;;;4996385;28;91733;-73
2022/10/29 08:08:22;;;;;;;32.65;20.65;;;15.50;99.90;;;;;;4996111;28;93176;-73
2022/10/29 08:10:49;;;;;;;31.95;18.77;;;15.50;99.90;;;;;;4994565;28;93140;-72
2022/10/29 08:13:16;;;;;;;31.08;19.67;;;15.60;99.90;;;;;;4994893;28;94807;-73
2022/10/29 08:15:45;;;;;;;28.58;19.33;;;15.70;99.90;;;;;;4994970;28;92672;-72
2022/10/29 08:18:16;;;;;;;26.95;18.55;;;15.70;99.90;;;;;;5011068;28;94458;-73
2022/10/29 08:20:44;;;;;;;28.70;19.65;;;15.70;99.90;;;;;;4994844;28;93030;-72
2022/10/29 08:23:12;;;;;;;39.10;21.52;;;15.70;99.90;;;;;;5011280;28;92439;-72
2022/10/29 08:25:41;;;;;;;31.83;19.48;;;15.80;99.90;;;;;;4994529;28;92526;-73
2022/10/29 08:28:14;;;;;;;32.47;20.75;;;15.80;99.90;;;;;;5010709;28;95097;-73
2022/10/29 08:30:44;;;;;;;32.67;20.13;;;15.90;99.90;;;;;;4996001;28;92049;-73
2022/10/29 08:33:12;;;;;;;30.33;19.13;;;15.90;99.90;;;;;;4995556;28;92504;-72
2022/10/29 08:35:38;;;;;;;29.45;19.13;;;16.00;99.90;;;;;;5010601;28;92647;-73
2022/10/29 08:38:06;;;;;;;30.75;20.08;;;16.10;99.90;;;;;;4992671;28;95548;-72
2022/10/29 08:40:42;;;;;;;30.33;19.73;;;16.10;99.90;;;;;;4994087;28;95168;-73
2022/10/29 08:43:44;;;;;;;27.90;17.23;;;16.30;99.90;;;;;;4995540;28;92367;-72
2022/10/29 08:46:44;;;;;;;30.60;18.70;;;16.30;99.90;;;;;;4972904;28;92618;-72
2022/10/29 08:49:37;;;;;;;25.42;17.10;;;16.50;99.90;;;;;;5010420;28;93185;-73
2022/10/29 08:52:10;;;;;;;25.73;16.63;;;16.40;99.90;;;;;;5010877;28;93223;-72
2022/10/29 08:54:40;;;;;;;28.20;15.18;;;16.50;99.90;;;;;;4994121;28;92499;-73
2022/10/29 08:57:19;;;;;;;28.25;16.58;;;16.50;99.90;;;;;;4995822;28;91721;-73
2022/10/29 09:00:14;;;;;;;23.50;13.95;;;16.60;99.90;;;;;;4993782;28;95946;-73
2022/10/29 09:02:41;;;;;;;23.17;15.02;;;16.70;99.90;;;;;;4989757;28;93137;-73
2022/10/29 09:05:14;;;;;;;27.30;16.00;;;16.60;99.90;;;;;;5009369;28;95358;-73
2022/10/29 09:08:03;;;;;;;26.73;15.47;;;16.80;99.90;;;;;;5010422;28;92510;-72
2022/10/29 09:10:29;;;;;;;29.45;16.13;;;16.90;99.90;;;;;;4995386;28;93180;-72
2022/10/29 09:13:31;;;;;;;27.95;16.25;;;16.90;99.90;;;;;;4993649;28;92964;-73
2022/10/29 09:16:10;;;;;;;22.50;14.13;;;17.10;99.90;;;;;;4993538;28;92732;-73
2022/10/29 09:19:04;;;;;;;23.40;14.45;;;17.10;99.90;;;;;;5010891;28;92887;-73
2022/10/29 09:21:49;;;;;;;24.80;14.10;;;17.20;99.90;;;;;;5010274;28;93543;-73
2022/10/29 09:24:35;;;;;;;28.40;14.98;;;17.20;99.90;;;;;;5010534;28;93040;-73
2022/10/29 09:27:19;;;;;;;23.38;14.18;;;17.40;99.90;;;;;;5010454;28;92677;-73
2022/10/29 09:30:14;;;;;;;22.38;14.40;;;17.40;99.90;;;;;;4995156;28;92972;-73
2022/10/29 09:32:46;;;;;;;24.67;14.38;;;17.50;99.90;;;;;;5008699;28;99516;-73
2022/10/29 09:35:17;;;;;;;22.58;14.27;;;17.50;99.90;;;;;;4994055;28;95599;-73
2022/10/29 09:37:52;;;;;;;27.77;15.48;;;17.60;99.90;;;;;;4995050;28;92446;-73
2022/10/29 09:40:31;;;;;;;24.63;15.07;;;17.70;99.90;;;;;;5010041;28;93098;-72
2022/10/29 09:43:04;;;;;;;28.27;14.65;;;17.70;99.90;;;;;;4992937;28;95873;-73
2022/10/29 09:46:05;;;;;;;23.50;16.48;;;17.70;99.90;;;;;;4994300;28;93007;-73
2022/10/29 09:48:39;;;;;;;20.77;13.20;;;17.80;99.90;;;;;;4994848;28;94379;-73
2022/10/29 09:51:09;;;;;;;30.10;16.27;;;17.70;99.90;;;;;;4995030;28;91746;-73
2022/10/29 09:53:36;;;;;;;24.52;16.42;;;17.80;99.90;;;;;;5008642;28;93293;-73
2022/10/29 09:56:07;;;;;;;29.02;16.92;;;17.90;99.90;;;;;;4993156;28;93153;-73
2022/10/29 09:58:40;;;;;;;32.00;15.75;;;18.00;99.90;;;;;;4993671;28;94811;-73
2022/10/29 10:01:07;;;;;;;26.58;16.52;;;18.10;99.90;;;;;;5009850;28;92365;-73
2022/10/29 10:03:44;;;;;;;23.42;15.05;;;18.10;99.90;;;;;;4993352;28;93381;-73
2022/10/29 10:06:13;;;;;;;25.42;15.95;;;18.30;99.90;;;;;;5009381;28;92766;-73
2022/10/29 10:09:03;;;;;;;23.23;16.85;;;18.40;99.90;;;;;;5009649;28;92415;-73
2022/10/29 10:11:42;;;;;;;24.23;16.13;;;18.50;99.90;;;;;;5009814;28;92599;-73
2022/10/29 10:14:30;;;;;;;25.73;15.45;;;18.60;99.90;;;;;;5009410;28;95864;-73
2022/10/29 10:16:58;;;;;;;27.77;15.60;;;18.60;99.90;;;;;;4994855;28;93192;-73
2022/10/29 10:19:28;;;;;;;24.00;14.73;;;18.60;99.90;;;;;;4992757;28;92562;-73
2022/10/29 10:22:03;;;;;;;23.60;15.07;;;18.80;99.90;;;;;;4994194;28;92447;-73
2022/10/29 10:24:35;;;;;;;24.80;15.20;;;18.90;99.90;;;;;;4994281;28;95437;-73
2022/10/29 10:27:24;;;;;;;20.42;14.30;;;19.00;99.90;;;;;;4996006;28;95430;-73
2022/10/29 10:30:03;;;;;;;22.77;14.52;;;19.20;99.90;;;;;;4997699;28;92335;-73
2022/10/29 10:32:31;;;;;;;23.20;13.60;;;19.20;99.90;;;;;;4997992;28;93139;-73
2022/10/29 10:34:58;;;;;;;22.83;14.68;;;19.20;99.90;;;;;;4996715;28;92808;-73
2022/10/29 10:37:29;;;;;;;19.08;14.48;;;19.30;99.90;;;;;;4995960;28;93100;-73
2022/10/29 10:40:04;;;;;;;19.88;13.88;;;19.30;99.90;;;;;;5013048;28;92652;-73
2022/10/29 10:42:41;;;;;;;25.45;14.20;;;19.40;99.90;;;;;;5013132;28;91784;-73
2022/10/29 10:45:15;;;;;;;23.40;13.85;;;19.40;99.90;;;;;;4997199;28;93125;-73
2022/10/29 10:47:49;;;;;;;19.15;13.32;;;19.40;99.90;;;;;;4995868;28;94074;-73
2022/10/29 10:50:29;;;;;;;19.50;12.55;;;19.50;99.90;;;;;;4994499;28;95091;-73
2022/10/29 10:53:04;;;;;;;18.15;11.85;;;19.50;99.90;;;;;;5012794;28;92561;-73
2022/10/29 10:55:36;;;;;;;20.98;12.65;;;19.60;99.90;;;;;;4997403;28;93093;-73
2022/10/29 10:58:21;;;;;;;20.43;12.23;;;19.70;99.90;;;;;;4997399;28;92960;-73
2022/10/29 11:01:05;;;;;;;18.77;11.27;;;19.80;99.90;;;;;;4997461;28;92481;-73
2022/10/29 11:03:32;;;;;;;18.55;10.50;;;20.10;99.90;;;;;;4997267;28;92458;-73
2022/10/29 11:06:04;;;;;;;19.27;11.45;;;20.10;99.90;;;;;;4997143;28;93077;-73
2022/10/29 11:08:41;;;;;;;18.65;10.80;;;20.20;99.90;;;;;;5012428;28;93640;-73
2022/10/29 11:11:18;;;;;;;14.63;10.40;;;20.30;99.90;;;;;;4996992;28;92466;-73
2022/10/29 11:13:46;;;;;;;19.75;10.75;;;20.30;99.90;;;;;;5012541;28;92584;-73
2022/10/29 11:16:16;;;;;;;13.43;9.25;;;20.30;99.90;;;;;;4995349;28;95525;-73
2022/10/29 11:18:50;;;;;;;17.58;9.82;;;20.40;99.90;;;;;;4997290;28;95462;-73
2022/10/29 11:21:32;;;;;;;15.50;8.65;;;20.50;99.90;;;;;;4995877;28;92553;-73
2022/10/29 11:24:12;;;;;;;16.25;8.32;;;20.60;99.90;;;;;;4997708;28;92518;-73
2022/10/29 11:26:49;;;;;;;12.18;8.80;;;20.60;99.90;;;;;;4996182;28;93279;-73
2022/10/29 11:29:42;;;;;;;17.25;11.07;;;20.70;99.90;;;;;;4997176;28;93055;-73
2022/10/29 11:32:25;;;;;;;15.55;9.95;;;20.70;99.90;;;;;;4996885;28;92769;-73
2022/10/29 11:35:05;;;;;;;16.52;9.88;;;20.70;99.90;;;;;;4995582;28;92535;-73
2022/10/29 11:38:13;;;;;;;17.63;10.70;;;20.80;99.90;;;;;;4997083;28;93249;-73
2022/10/29 11:41:19;;;;;;;16.50;10.50;;;20.90;99.90;;;;;;4996447;28;93208;-73
2022/10/29 11:43:46;;;;;;;22.00;11.50;;;20.70;99.90;;;;;;4984555;28;94891;-73
2022/10/29 11:46:33;;;;;;;17.58;10.20;;;20.60;99.90;;;;;;4996291;28;92662;-73
2022/10/29 11:49:06;;;;;;;19.35;10.57;;;20.60;99.90;;;;;;4994900;28;93603;-73
2022/10/29 11:51:42;;;;;;;15.52;12.65;;;20.60;99.90;;;;;;4994834;28;95643;-73
2022/10/29 11:54:09;;;;;;;15.77;10.30;;;20.60;99.90;;;;;;5011483;28;92487;-73
2022/10/29 11:56:45;;;;;;;16.08;10.70;;;20.50;99.90;;;;;;4996343;28;92839;-73
2022/10/29 11:59:20;;;;;;;17.13;11.32;;;20.60;99.90;;;;;;4996327;28;92986;-73
2022/10/29 12:02:04;;;;;;;20.90;12.60;;;20.60;99.90;;;;;;4996589;28;92947;-73
2022/10/29 12:04:52;;;;;;;18.55;11.43;;;20.50;99.90;;;;;;4996185;28;92390;-73
2022/10/29 12:07:25;;;;;;;23.00;12.85;;;20.70;99.90;;;;;;5011670;28;92982;-73
2022/10/29 12:10:14;;;;;;;18.80;12.13;;;20.70;99.90;;;;;;4994863;28;95539;-73
2022/10/29 12:12:43;;;;;;;19.00;11.60;;;20.90;99.90;;;;;;4995996;28;95550;-73
2022/10/29 12:15:25;;;;;;;18.67;12.88;;;21.00;99.90;;;;;;4995845;28;92363;-73
2022/10/29 12:18:23;;;;;;;23.15;13.48;;;21.10;99.90;;;;;;5024874;28;92478;-73
2022/10/29 12:21:09;;;;;;;21.13;13.63;;;21.20;99.90;;;;;;4996088;28;93505;-73
2022/10/29 12:24:14;;;;;;;20.92;12.93;;;21.10;99.90;;;;;;4995687;28;92393;-73
2022/10/29 12:27:03;;;;;;;20.00;13.05;;;21.10;99.90;;;;;;4994185;28;92384;-73
2022/10/29 12:29:46;;;;;;;21.10;11.65;;;21.10;99.90;;;;;;4996130;28;91804;-73
2022/10/29 12:32:24;;;;;;;26.17;13.00;;;21.10;99.90;;;;;;4995983;28;92987;-73
2022/10/29 12:35:01;;;;;;;18.10;12.35;;;21.10;99.90;;;;;;4995551;28;93024;-73
2022/10/29 12:37:43;;;;;;;19.88;13.18;;;21.00;99.90;;;;;;4994759;28;95662;-73
2022/10/29 12:40:38;;;;;;;22.17;14.45;;;21.10;99.90;;;;;;5011055;28;92592;-73
2022/10/29 12:43:21;;;;;;;22.95;14.10;;;21.10;99.90;;;;;;4993333;28;93291;-73
2022/10/29 12:46:06;;;;;;;24.90;15.95;;;21.00;99.90;;;;;;4995579;28;93056;-73
2022/10/29 12:49:03;;;;;;;22.88;15.18;;;21.00;99.90;;;;;;4995157;28;92456;-73
2022/10/29 12:51:45;;;;;;;28.38;16.88;;;20.90;99.90;;;;;;4995636;28;92462;-73
2022/10/29 12:54:27;;;;;;;26.35;16.25;;;20.80;99.90;;;;;;4993942;28;97642;-74
2022/10/29 12:56:56;;;;;;;26.83;16.25;;;20.70;99.90;;;;;;5010933;28;93214;-74
2022/10/29 12:59:23;;;;;;;25.77;16.08;;;20.70;99.90;;;;;;4993886;28;92375;-74